createdAt,value
2022-10-04T00:01:49.528Z,83.12
2022-10-04T00:04:19.681Z,83.12
2022-10-04T00:07:11.857Z,83.30
2022-10-04T00:09:54.562Z,83.04
2022-10-04T00:12:31.307Z,82.97
2022-10-04T00:15:05.354Z,83.03
2022-10-04T00:17:36.100Z,83.02
2022-10-04T00:20:44.525Z,83.00
2022-10-04T00:23:25.188Z,83.05
2022-10-04T00:25:54.222Z,83.12
2022-10-04T00:28:21.998Z,83.05
2022-10-04T00:31:12.890Z,82.95
2022-10-04T00:34:03.339Z,82.98
2022-10-04T00:36:38.503Z,83.10
2022-10-04T00:39:09.615Z,82.96
2022-10-04T00:41:49.661Z,82.91
2022-10-04T00:44:24.388Z,82.93
2022-10-04T00:46:55.159Z,82.86
2022-10-04T00:49:30.058Z,82.76
2022-10-04T00:52:08.176Z,82.96
2022-10-04T00:54:42.302Z,82.90
2022-10-04T00:57:21.050Z,82.84
2022-10-04T00:59:53.397Z,82.75
2022-10-04T01:02:46.116Z,82.85
2022-10-04T01:05:14.161Z,82.74
2022-10-04T01:07:46.700Z,82.76
2022-10-04T01:10:28.480Z,82.73
2022-10-04T01:13:10.157Z,82.72
2022-10-04T01:15:49.469Z,82.51
2022-10-04T01:18:20.070Z,82.59
2022-10-04T01:20:59.223Z,82.37
2022-10-04T01:23:49.506Z,82.47
2022-10-04T01:26:29.748Z,82.37
2022-10-04T01:29:00.742Z,82.25
2022-10-04T01:31:31.678Z,82.22
2022-10-04T01:34:01.237Z,82.28
2022-10-04T01:36:29.653Z,82.03
2022-10-04T01:38:58.059Z,82.08
2022-10-04T01:41:39.004Z,82.02
2022-10-04T01:44:11.256Z,82.08
2022-10-04T01:46:41.277Z,82.17
2022-10-04T01:49:20.619Z,82.04
2022-10-04T01:52:05.733Z,82.04
2022-10-04T01:54:42.888Z,81.96
2022-10-04T01:57:26.922Z,82.00
2022-10-04T02:00:04.552Z,81.96
2022-10-04T02:03:10.122Z,81.89
2022-10-04T02:05:49.896Z,81.88
2022-10-04T02:08:25.411Z,81.86
2022-10-04T02:10:55.207Z,81.68
2022-10-04T02:13:27.863Z,81.72
2022-10-04T02:15:58.438Z,81.60
2022-10-04T02:18:27.755Z,81.60
2022-10-04T02:20:56.857Z,81.47
2022-10-04T02:23:26.293Z,81.45
2022-10-04T02:25:54.704Z,81.42
2022-10-04T02:28:22.623Z,81.36
2022-10-04T02:31:12.508Z,81.44
2022-10-04T02:33:47.269Z,81.51
2022-10-04T02:36:17.639Z,81.47
2022-10-04T02:39:02.746Z,81.53
2022-10-04T02:41:54.771Z,81.49
2022-10-04T02:44:36.736Z,81.63
2022-10-04T02:47:12.808Z,81.77
2022-10-04T02:49:54.830Z,81.88
2022-10-04T02:52:25.848Z,81.98
2022-10-04T02:55:04.313Z,82.14
2022-10-04T02:57:34.712Z,82.18
2022-10-04T03:00:17.151Z,82.41
2022-10-04T03:03:19.114Z,82.53
2022-10-04T03:06:13.059Z,82.63
2022-10-04T03:08:59.195Z,82.65
2022-10-04T03:11:46.814Z,82.84
2022-10-04T03:14:23.972Z,82.88
2022-10-04T03:16:57.489Z,82.88
2022-10-04T03:19:27.745Z,82.81
2022-10-04T03:22:08.133Z,83.08
2022-10-04T03:25:06.030Z,83.13
2022-10-04T03:27:36.356Z,83.15
2022-10-04T03:30:05.118Z,83.19
2022-10-04T03:32:33.499Z,83.39
2022-10-04T03:35:05.700Z,83.40
2022-10-04T03:37:38.072Z,83.32
2022-10-04T03:40:10.134Z,83.38
2022-10-04T03:42:47.859Z,83.62
2022-10-04T03:45:18.958Z,83.58
2022-10-04T03:47:50.753Z,83.58
2022-10-04T03:50:26.647Z,83.45
2022-10-04T03:52:58.548Z,83.58
2022-10-04T03:55:35.081Z,83.57
2022-10-04T03:58:03.511Z,83.69
2022-10-04T04:00:31.795Z,83.80
2022-10-04T04:03:05.288Z,83.73
2022-10-04T04:05:44.809Z,83.91
2022-10-04T04:08:24.634Z,83.78
2022-10-04T04:10:55.810Z,83.80
2022-10-04T04:13:25.716Z,83.76
2022-10-04T04:15:57.649Z,83.77
2022-10-04T04:18:29.851Z,83.87
2022-10-04T04:21:01.726Z,83.76
2022-10-04T04:23:36.635Z,83.73
2022-10-04T04:26:41.115Z,83.77
2022-10-04T04:29:26.330Z,83.80
2022-10-04T04:32:12.187Z,83.67
2022-10-04T04:34:57.293Z,83.73
2022-10-04T04:37:25.471Z,83.69
2022-10-04T04:39:55.441Z,83.61
2022-10-04T04:42:35.234Z,83.48
2022-10-04T04:45:15.842Z,83.44
2022-10-04T04:47:47.219Z,83.37
2022-10-04T04:50:18.631Z,83.34
2022-10-04T04:53:00.326Z,83.28
2022-10-04T04:55:50.036Z,83.21
2022-10-04T04:58:35.568Z,83.27
2022-10-04T05:01:08.165Z,83.15
2022-10-04T05:03:36.148Z,83.22
2022-10-04T05:06:05.145Z,83.20
2022-10-04T05:08:40.966Z,83.22
2022-10-04T05:11:09.724Z,83.22
2022-10-04T05:13:40.749Z,83.19
2022-10-04T05:16:21.633Z,83.28
2022-10-04T05:19:03.307Z,83.19
2022-10-04T05:21:33.404Z,83.25
2022-10-04T05:24:14.294Z,83.33
2022-10-04T05:26:43.605Z,83.34
2022-10-04T05:29:18.341Z,83.39
2022-10-04T05:32:21.433Z,83.39
2022-10-04T05:34:51.345Z,83.40
2022-10-04T05:37:42.883Z,83.39
2022-10-04T05:40:24.909Z,83.45
2022-10-04T05:42:55.472Z,83.33
2022-10-04T05:45:27.586Z,83.34
2022-10-04T05:48:01.684Z,83.39
2022-10-04T05:50:43.306Z,83.44
2022-10-04T05:53:34.560Z,83.37
2022-10-04T05:56:28.923Z,83.22
2022-10-04T05:59:15.335Z,83.20
2022-10-04T06:01:57.198Z,83.28
2022-10-04T06:04:40.397Z,83.23
2022-10-04T06:07:35.315Z,83.17
2022-10-04T06:10:30.881Z,83.19
2022-10-04T06:13:20.498Z,83.11
2022-10-04T06:16:07.238Z,83.18
2022-10-04T06:18:56.987Z,83.26
2022-10-04T06:21:27.598Z,83.26
2022-10-04T06:24:14.518Z,83.20
2022-10-04T06:26:49.946Z,83.11
2022-10-04T06:29:23.143Z,82.98
2022-10-04T06:32:28.910Z,82.99
2022-10-04T06:35:11.424Z,82.99
2022-10-04T06:38:07.465Z,83.03
2022-10-04T06:40:44.345Z,82.86
2022-10-04T06:43:17.059Z,82.91
2022-10-04T06:46:09.562Z,83.02
2022-10-04T06:48:59.458Z,82.83
2022-10-04T06:51:55.739Z,82.97
2022-10-04T06:54:53.813Z,82.92
2022-10-04T06:57:31.821Z,82.75
2022-10-04T07:00:22.987Z,82.75
2022-10-04T07:03:14.795Z,82.66
2022-10-04T07:05:46.186Z,82.58
2022-10-04T07:08:37.026Z,82.35
2022-10-04T07:11:12.502Z,82.28
2022-10-04T07:13:51.202Z,82.10
2022-10-04T07:16:29.120Z,81.93
2022-10-04T07:19:13.268Z,81.60
2022-10-04T07:21:56.653Z,81.67
2022-10-04T07:24:42.015Z,81.09
2022-10-04T07:27:16.570Z,80.77
2022-10-04T07:29:46.712Z,80.66
2022-10-04T07:32:24.037Z,80.59
2022-10-04T07:34:58.399Z,80.16
2022-10-04T07:37:31.200Z,79.81
2022-10-04T07:40:02.196Z,79.93
2022-10-04T07:42:38.496Z,79.82
2022-10-04T07:45:20.893Z,79.58
2022-10-04T07:47:49.545Z,79.72
2022-10-04T07:50:35.276Z,79.33
2022-10-04T07:53:37.479Z,78.68
2022-10-04T07:56:15.451Z,78.82
2022-10-04T07:59:23.023Z,78.62
2022-10-04T08:02:16.093Z,78.33
2022-10-04T08:05:17.414Z,77.98
2022-10-04T08:08:27.790Z,77.94
2022-10-04T08:11:10.773Z,77.45
2022-10-04T08:13:47.547Z,77.18
2022-10-04T08:16:38.401Z,77.33
2022-10-04T08:19:51.356Z,77.29
2022-10-04T08:22:55.874Z,77.21
2022-10-04T08:25:36.269Z,77.08
2022-10-04T08:28:42.050Z,76.92
2022-10-04T08:31:40.846Z,76.77
2022-10-04T08:34:43.229Z,76.63
2022-10-04T08:37:26.397Z,76.29
2022-10-04T08:40:33.556Z,75.78
2022-10-04T08:43:20.374Z,75.43
2022-10-04T08:46:23.881Z,74.72
2022-10-04T08:49:03.566Z,74.79
2022-10-04T08:51:59.005Z,74.38
2022-10-04T08:54:35.603Z,74.75
2022-10-04T08:57:16.089Z,73.99
2022-10-04T09:00:05.672Z,74.17
2022-10-04T09:02:42.714Z,73.92
2022-10-04T09:05:37.366Z,73.55
2022-10-04T09:08:42.656Z,72.62
2022-10-04T09:11:31.266Z,72.45
2022-10-04T09:14:04.876Z,72.11
2022-10-04T09:17:01.851Z,71.16
2022-10-04T09:19:51.247Z,70.55
2022-10-04T09:22:46.937Z,70.84
2022-10-04T09:25:32.761Z,71.13
2022-10-04T09:28:17.130Z,71.28
2022-10-04T09:31:06.920Z,70.78
2022-10-04T09:33:53.988Z,70.27
2022-10-04T09:37:00.344Z,69.88
2022-10-04T09:39:59.261Z,69.51
2022-10-04T09:42:59.458Z,69.12
2022-10-04T09:45:55.137Z,68.39
2022-10-04T09:48:32.873Z,67.49
2022-10-04T09:51:32.497Z,67.35
2022-10-04T09:54:45.098Z,67.45
2022-10-04T09:57:41.700Z,68.06
2022-10-04T10:00:22.454Z,68.47
2022-10-04T10:03:12.231Z,68.43
2022-10-04T10:06:13.388Z,67.92
2022-10-04T10:09:02.885Z,67.77
2022-10-04T10:12:12.995Z,68.05
2022-10-04T10:15:01.305Z,67.01
2022-10-04T10:17:45.443Z,66.27
2022-10-04T10:20:41.209Z,65.97
2022-10-04T10:23:30.519Z,66.00
2022-10-04T10:26:27.793Z,66.19
2022-10-04T10:29:29.945Z,66.32
2022-10-04T10:32:24.067Z,66.33
2022-10-04T10:35:19.910Z,67.22
2022-10-04T10:38:15.747Z,67.29
2022-10-04T10:41:11.521Z,67.15
2022-10-04T10:43:57.905Z,66.48
2022-10-04T10:46:33.578Z,66.42
2022-10-04T10:49:22.404Z,66.69
2022-10-04T10:52:10.920Z,66.79
2022-10-04T10:54:58.040Z,66.94
2022-10-04T11:56:45.022Z,64.57
2022-10-04T11:59:42.531Z,65.47
2022-10-04T12:02:23.547Z,66.15
2022-10-04T12:05:04.635Z,66.51
2022-10-04T12:07:57.428Z,66.32
2022-10-04T12:10:29.030Z,66.53
2022-10-04T12:13:05.290Z,66.99
2022-10-04T12:15:38.773Z,66.69
2022-10-04T12:18:38.401Z,66.54
2022-10-04T12:21:29.064Z,66.98
2022-10-04T12:24:19.775Z,67.00
2022-10-04T12:27:15.738Z,66.35
2022-10-04T12:29:56.069Z,65.76
2022-10-04T12:32:30.118Z,65.51
2022-10-04T12:35:12.702Z,65.23
2022-10-04T12:38:08.336Z,65.25
2022-10-04T12:41:11.736Z,65.92
2022-10-04T12:43:45.888Z,66.17
2022-10-04T12:46:36.498Z,66.74
2022-10-04T12:49:32.422Z,66.70
2022-10-04T12:52:20.977Z,66.13
2022-10-04T12:55:05.193Z,66.46
2022-10-04T12:57:41.056Z,67.00
2022-10-04T13:00:23.109Z,67.25
2022-10-04T13:03:27.534Z,67.58
2022-10-04T13:05:55.558Z,67.45
2022-10-04T13:08:37.947Z,67.54
2022-10-04T13:11:31.384Z,67.63
2022-10-04T13:14:24.075Z,67.80
2022-10-04T13:20:18.553Z,68.22
2022-10-04T13:23:01.806Z,68.43
2022-10-04T13:26:04.172Z,68.09
2022-10-04T13:28:57.384Z,67.82
2022-10-04T13:31:46.584Z,68.12
2022-10-04T13:34:55.558Z,68.16
2022-10-04T13:37:49.970Z,67.96
2022-10-04T13:40:36.719Z,68.02
2022-10-04T13:43:23.769Z,67.61
2022-10-04T13:46:21.926Z,67.53
2022-10-04T13:48:52.593Z,67.48
2022-10-04T13:51:47.103Z,67.40
2022-10-04T13:54:59.879Z,67.52
2022-10-04T13:57:51.784Z,67.77
2022-10-04T14:01:00.766Z,68.08
2022-10-04T14:03:32.058Z,68.21
2022-10-04T14:06:39.011Z,68.23
2022-10-04T14:09:28.419Z,68.25
2022-10-04T14:12:08.854Z,68.62
2022-10-04T14:14:40.048Z,68.78
2022-10-04T14:17:40.743Z,68.94
2022-10-04T14:20:42.075Z,68.96
2022-10-04T14:23:12.754Z,68.79
2022-10-04T14:26:02.819Z,68.63
2022-10-04T14:29:08.324Z,68.45
2022-10-04T14:32:13.262Z,68.58
2022-10-04T14:34:47.733Z,68.55
2022-10-04T14:37:49.736Z,68.61
2022-10-04T14:40:32.504Z,68.49
2022-10-04T14:43:31.454Z,68.51
2022-10-04T14:46:40.844Z,68.38
2022-10-04T14:49:41.788Z,68.27
2022-10-04T14:52:14.473Z,68.43
2022-10-04T14:54:56.392Z,68.71
2022-10-04T14:57:52.041Z,68.55
2022-10-04T15:00:23.887Z,68.64
2022-10-04T15:03:04.435Z,68.64
2022-10-04T15:05:44.357Z,68.56
2022-10-04T15:08:54.482Z,68.28
2022-10-04T15:11:44.420Z,68.57
2022-10-04T15:14:24.446Z,68.64
2022-10-04T15:17:26.209Z,68.57
2022-10-04T15:20:01.343Z,68.48
2022-10-04T15:22:49.894Z,68.33
2022-10-04T15:25:37.952Z,67.96
2022-10-04T15:28:33.002Z,67.79
2022-10-04T15:31:20.687Z,67.77
2022-10-04T15:34:33.546Z,68.04
2022-10-04T15:37:13.402Z,68.05
2022-10-04T15:40:03.785Z,68.13
2022-10-04T15:42:38.353Z,68.26
2022-10-04T15:45:18.120Z,68.34
2022-10-04T15:48:05.161Z,68.45
2022-10-04T15:50:41.762Z,68.67
2022-10-04T15:53:33.134Z,68.82
2022-10-04T15:56:33.234Z,68.87
2022-10-04T15:59:28.413Z,69.23
2022-10-04T16:02:10.414Z,69.19
2022-10-04T16:05:04.051Z,69.54
2022-10-04T16:08:07.209Z,69.84
2022-10-04T16:11:08.320Z,69.74
2022-10-04T16:13:56.961Z,69.88
2022-10-04T16:16:41.567Z,70.07
2022-10-04T16:19:30.405Z,70.12
2022-10-04T16:22:15.226Z,70.31
2022-10-04T16:25:21.557Z,70.58
2022-10-04T16:27:59.627Z,70.72
2022-10-04T16:30:50.687Z,70.84
2022-10-04T16:33:38.441Z,70.98
2022-10-04T16:36:10.201Z,71.20
2022-10-04T16:39:08.465Z,71.32
2022-10-04T16:41:44.353Z,71.35
2022-10-04T16:44:34.486Z,71.45
2022-10-04T16:47:32.504Z,71.51
2022-10-04T16:50:05.373Z,71.67
2022-10-04T16:53:01.228Z,71.81
2022-10-04T16:56:13.184Z,71.82
2022-10-04T16:58:44.071Z,71.89
2022-10-04T17:01:24.112Z,71.90
2022-10-04T17:04:18.909Z,71.98
2022-10-04T17:07:05.809Z,71.98
2022-10-04T17:09:48.236Z,72.10
2022-10-04T17:13:00.372Z,72.10
2022-10-04T17:15:28.646Z,72.13
2022-10-04T17:18:06.331Z,72.19
2022-10-04T17:20:49.053Z,72.25
2022-10-04T17:23:24.348Z,72.32
2022-10-04T17:26:13.482Z,72.30
2022-10-04T17:28:47.704Z,72.48
2022-10-04T17:31:26.076Z,72.59
2022-10-04T17:34:20.871Z,72.61
2022-10-04T17:36:56.368Z,72.68
2022-10-04T17:39:27.334Z,72.81
2022-10-04T17:42:24.743Z,72.86
2022-10-04T17:45:36.436Z,72.88
2022-10-04T17:48:42.223Z,72.96
2022-10-04T17:51:47.513Z,73.22
2022-10-04T17:54:41.479Z,73.22
2022-10-04T17:57:12.463Z,73.17
2022-10-04T17:59:53.053Z,73.35
2022-10-04T18:03:03.261Z,73.45
2022-10-04T18:05:41.165Z,73.47
2022-10-04T18:08:37.252Z,73.48
2022-10-04T18:11:16.608Z,73.51
2022-10-04T18:14:04.821Z,73.70
2022-10-04T18:16:56.585Z,73.67
2022-10-04T18:19:43.143Z,73.85
2022-10-04T18:22:13.125Z,73.99
2022-10-04T18:24:44.327Z,73.91
2022-10-04T18:27:23.379Z,73.99
2022-10-04T18:30:03.078Z,74.05
2022-10-04T18:32:43.098Z,74.06
2022-10-04T18:35:54.394Z,74.11
2022-10-04T18:38:30.457Z,74.26
2022-10-04T18:41:02.956Z,74.32
2022-10-04T18:44:15.290Z,74.30
2022-10-04T18:46:50.440Z,74.31
2022-10-04T18:49:27.291Z,74.32
2022-10-04T18:52:25.804Z,74.33
2022-10-04T18:55:06.034Z,74.63
2022-10-04T18:57:59.162Z,74.69
2022-10-04T19:00:57.180Z,74.81
2022-10-04T19:04:00.424Z,74.84
2022-10-04T19:06:34.072Z,74.98
2022-10-04T19:09:34.100Z,75.01
2022-10-04T19:12:16.390Z,74.99
2022-10-04T19:15:07.892Z,75.11
2022-10-04T19:17:55.669Z,75.08
2022-10-04T19:20:32.794Z,75.25
2022-10-04T19:23:25.863Z,75.39
2022-10-04T19:26:30.394Z,75.31
2022-10-04T19:29:06.032Z,75.42
2022-10-04T19:32:04.137Z,75.50
2022-10-04T19:34:54.036Z,75.62
2022-10-04T19:37:34.308Z,75.57
2022-10-04T19:40:25.558Z,75.70
2022-10-04T19:43:16.068Z,75.76
2022-10-04T19:46:14.080Z,75.77
2022-10-04T19:48:52.701Z,75.83
2022-10-04T19:51:39.844Z,75.90
2022-10-04T19:54:15.930Z,75.91
2022-10-04T19:56:47.962Z,76.02
2022-10-04T19:59:19.140Z,76.06
2022-10-04T20:01:47.597Z,76.20
2022-10-04T20:04:35.817Z,76.11
2022-10-04T20:07:27.676Z,76.11
2022-10-04T20:10:15.738Z,76.30
2022-10-04T20:13:17.468Z,76.31
2022-10-04T20:16:01.358Z,76.30
2022-10-04T20:18:32.946Z,76.42
2022-10-04T20:21:01.498Z,76.40
2022-10-04T20:23:38.790Z,76.51
2022-10-04T20:26:09.371Z,76.49
2022-10-04T20:28:42.346Z,76.67
2022-10-04T20:31:26.939Z,76.60
2022-10-04T20:33:55.982Z,76.76
2022-10-04T20:36:24.007Z,76.78
2022-10-04T20:39:02.220Z,76.69
2022-10-04T20:41:50.263Z,76.84
2022-10-04T20:44:54.334Z,76.82
2022-10-04T20:47:44.285Z,76.80
2022-10-04T20:50:35.716Z,76.92
2022-10-04T20:53:12.388Z,77.07
2022-10-04T20:55:40.649Z,76.96
2022-10-04T20:58:23.772Z,77.11
2022-10-04T21:00:57.843Z,77.07
2022-10-04T21:03:25.906Z,77.03
2022-10-04T21:06:03.753Z,76.97
2022-10-04T21:08:32.535Z,77.08
2022-10-04T21:11:19.471Z,77.08
2022-10-04T21:13:53.612Z,77.01
2022-10-04T21:16:39.830Z,77.05
2022-10-04T21:19:32.886Z,76.94
2022-10-04T21:22:03.411Z,76.91
2022-10-04T21:24:37.378Z,76.91
2022-10-04T21:27:09.121Z,77.05
2022-10-04T21:29:38.979Z,76.87
2022-10-04T21:32:06.962Z,76.97
2022-10-04T21:34:52.504Z,76.95
2022-10-04T21:37:21.934Z,76.95
2022-10-04T21:39:50.086Z,76.94
2022-10-04T21:42:18.336Z,76.87
2022-10-04T21:44:46.405Z,76.89
2022-10-04T21:47:14.615Z,76.98
2022-10-04T21:49:43.031Z,76.95
2022-10-04T21:52:11.631Z,77.00
2022-10-04T21:54:39.462Z,77.00
2022-10-04T21:57:07.322Z,76.97
2022-10-04T21:59:35.443Z,76.95
2022-10-04T22:02:03.311Z,77.08
2022-10-04T22:04:31.415Z,77.06
2022-10-04T22:06:59.843Z,77.03
2022-10-04T22:09:28.067Z,77.08
2022-10-04T22:11:56.201Z,77.10
2022-10-04T22:14:24.227Z,77.14
2022-10-04T22:16:52.422Z,77.14
2022-10-04T22:19:20.288Z,77.25
2022-10-04T22:21:48.360Z,77.13
2022-10-04T22:24:21.006Z,77.12
2022-10-04T22:26:49.529Z,77.25
2022-10-04T22:29:19.144Z,77.25
2022-10-04T22:31:51.046Z,77.19
2022-10-04T22:34:22.977Z,77.28
2022-10-04T22:36:53.526Z,77.29
2022-10-04T22:39:22.199Z,77.45
2022-10-04T22:41:56.114Z,77.34
2022-10-04T22:44:29.562Z,77.61
2022-10-04T22:47:00.425Z,77.28
2022-10-04T22:49:32.825Z,77.51
2022-10-04T22:52:04.288Z,77.51
2022-10-04T22:54:34.992Z,77.64
2022-10-04T22:57:02.834Z,77.66
2022-10-04T22:59:37.910Z,77.63
2022-10-04T23:02:12.717Z,77.66
2022-10-04T23:04:44.226Z,77.60
2022-10-04T23:07:12.800Z,77.60
2022-10-04T23:09:42.024Z,77.51
2022-10-04T23:12:09.898Z,77.63
2022-10-04T23:14:39.256Z,77.60
2022-10-04T23:17:19.798Z,77.58
2022-10-04T23:19:47.852Z,77.62
2022-10-04T23:22:18.649Z,77.53
2022-10-04T23:24:46.650Z,77.52
2022-10-04T23:27:17.413Z,77.54
2022-10-04T23:29:46.798Z,77.53
2022-10-04T23:32:17.421Z,77.42
2022-10-04T23:34:55.711Z,77.53
2022-10-04T23:37:31.012Z,77.37
2022-10-04T23:39:59.452Z,77.38
2022-10-04T23:42:32.571Z,77.46
2022-10-04T23:45:02.166Z,77.50
2022-10-04T23:47:34.774Z,77.38
2022-10-04T23:50:17.711Z,77.57
2022-10-04T23:52:45.925Z,77.44
2022-10-04T23:55:19.926Z,77.48
2022-10-04T23:57:48.451Z,77.41
